createdAt,value
2022-12-18T00:01:09.069Z,29.20
2022-12-18T00:03:37.103Z,29.38
2022-12-18T00:06:04.186Z,29.02
2022-12-18T00:08:30.812Z,33.60
2022-12-18T00:11:08.226Z,28.13
2022-12-18T00:13:36.481Z,34.30
2022-12-18T00:16:08.976Z,29.88
2022-12-18T00:18:36.140Z,29.63
2022-12-18T00:21:05.460Z,33.17
2022-12-18T00:23:33.042Z,30.45
2022-12-18T00:26:00.607Z,31.88
2022-12-18T00:28:27.247Z,29.85
2022-12-18T00:31:05.111Z,33.38
2022-12-18T00:33:32.276Z,30.15
2022-12-18T00:36:02.964Z,31.90
2022-12-18T00:38:29.881Z,27.30
2022-12-18T00:40:56.596Z,31.63
2022-12-18T00:43:23.180Z,32.60
2022-12-18T00:45:50.266Z,32.05
2022-12-18T00:48:16.857Z,31.85
2022-12-18T00:50:43.806Z,30.35
2022-12-18T00:53:10.399Z,27.70
2022-12-18T00:55:39.818Z,34.35
2022-12-18T00:58:06.409Z,28.73
2022-12-18T01:00:33.048Z,30.77
2022-12-18T01:02:59.648Z,35.63
2022-12-18T01:05:26.545Z,33.70
2022-12-18T01:07:53.228Z,31.85
2022-12-18T01:10:20.333Z,30.35
2022-12-18T01:12:46.950Z,29.23
2022-12-18T01:15:15.283Z,33.42
2022-12-18T01:17:42.544Z,30.85
2022-12-18T01:20:11.174Z,31.17
2022-12-18T01:22:38.872Z,28.35
2022-12-18T01:25:08.128Z,31.75
2022-12-18T01:27:35.225Z,28.13
2022-12-18T01:30:05.043Z,34.08
2022-12-18T01:32:32.491Z,29.35
2022-12-18T01:34:59.475Z,27.83
2022-12-18T01:37:27.404Z,30.58
2022-12-18T01:39:55.294Z,30.63
2022-12-18T01:42:22.692Z,34.20
2022-12-18T01:45:22.476Z,33.28
2022-12-18T01:47:52.086Z,30.25
2022-12-18T01:50:31.496Z,26.52
2022-12-18T01:53:03.279Z,26.08
2022-12-18T01:55:33.659Z,29.63
2022-12-18T01:58:01.711Z,29.63
2022-12-18T02:00:29.101Z,30.08
2022-12-18T02:02:56.047Z,33.55
2022-12-18T02:05:42.076Z,32.97
2022-12-18T02:08:15.340Z,27.40
2022-12-18T02:11:06.050Z,30.15
2022-12-18T02:16:38.576Z,26.55
2022-12-18T02:19:30.256Z,28.83
2022-12-18T02:22:02.311Z,24.23
2022-12-18T02:24:46.210Z,25.60
2022-12-18T02:27:14.375Z,33.42
2022-12-18T02:29:50.585Z,33.35
2022-12-18T02:32:27.614Z,28.80
2022-12-18T02:34:57.291Z,29.42
2022-12-18T02:37:28.871Z,29.95
2022-12-18T02:39:58.045Z,28.92
2022-12-18T02:42:25.483Z,32.65
2022-12-18T02:44:53.305Z,32.25
2022-12-18T02:47:32.324Z,31.13
2022-12-18T02:49:58.822Z,34.45
2022-12-18T02:52:29.311Z,31.42
2022-12-18T02:55:10.343Z,28.88
2022-12-18T02:57:38.454Z,28.42
2022-12-18T03:00:11.343Z,32.55
2022-12-18T03:02:56.795Z,25.58
2022-12-18T03:05:39.890Z,28.05
2022-12-18T03:08:11.409Z,32.13
2022-12-18T03:10:45.934Z,29.25
2022-12-18T03:13:31.032Z,30.55
2022-12-18T03:16:00.006Z,27.73
2022-12-18T03:18:34.226Z,28.90
2022-12-18T03:21:06.129Z,29.65
2022-12-18T03:23:41.843Z,28.83
2022-12-18T03:26:13.048Z,28.33
2022-12-18T03:28:46.881Z,32.20
2022-12-18T03:31:16.042Z,32.35
2022-12-18T03:33:56.479Z,34.25
2022-12-18T03:36:29.978Z,36.35
2022-12-18T03:38:59.596Z,35.35
2022-12-18T03:41:53.701Z,33.90
2022-12-18T03:44:52.821Z,37.05
2022-12-18T03:47:42.416Z,32.30
2022-12-18T03:50:21.800Z,34.17
2022-12-18T03:53:08.555Z,28.90
2022-12-18T03:55:36.961Z,29.00
2022-12-18T03:58:08.613Z,31.10
2022-12-18T04:00:54.075Z,30.17
2022-12-18T04:03:26.133Z,29.38
2022-12-18T04:05:56.258Z,32.60
2022-12-18T04:08:24.158Z,25.27
2022-12-18T04:11:02.958Z,31.52
2022-12-18T04:13:34.969Z,34.75
2022-12-18T04:16:03.371Z,33.53
2022-12-18T04:18:31.135Z,34.90
2022-12-18T04:20:59.760Z,23.83
2022-12-18T04:23:26.659Z,25.60
2022-12-18T04:25:56.879Z,32.42
2022-12-18T04:28:37.837Z,26.73
2022-12-18T04:31:04.989Z,31.63
2022-12-18T04:33:31.698Z,32.80
2022-12-18T04:35:59.041Z,29.83
2022-12-18T04:38:26.170Z,29.83
2022-12-18T04:41:01.644Z,29.25
2022-12-18T04:43:28.381Z,31.75
2022-12-18T04:45:54.994Z,28.58
2022-12-18T04:48:21.772Z,32.08
2022-12-18T04:50:49.011Z,26.52
2022-12-18T04:53:15.665Z,28.67
2022-12-18T04:55:42.194Z,27.65
2022-12-18T04:58:08.812Z,27.52
2022-12-18T05:00:36.451Z,31.88
2022-12-18T05:03:03.880Z,31.65
2022-12-18T05:05:30.508Z,26.65
2022-12-18T05:07:57.069Z,28.60
2022-12-18T05:10:23.645Z,29.73
2022-12-18T05:13:00.962Z,27.60
2022-12-18T05:15:32.821Z,33.13
2022-12-18T05:18:00.119Z,30.10
2022-12-18T05:20:27.484Z,29.10
2022-12-18T05:22:55.042Z,30.58
2022-12-18T05:25:22.099Z,28.75
2022-12-18T05:27:48.708Z,29.63
2022-12-18T05:30:16.278Z,27.80
2022-12-18T05:32:43.153Z,30.25
2022-12-18T05:35:11.659Z,26.63
2022-12-18T05:37:42.991Z,22.13
2022-12-18T05:40:10.647Z,28.98
2022-12-18T05:42:37.466Z,28.00
2022-12-18T05:45:05.040Z,26.98
2022-12-18T05:47:31.678Z,23.98
2022-12-18T05:49:58.351Z,27.13
2022-12-18T05:52:25.003Z,25.30
2022-12-18T05:54:51.617Z,23.73
2022-12-18T05:57:18.497Z,24.92
2022-12-18T05:59:45.104Z,26.98
2022-12-18T06:02:11.802Z,24.20
2022-12-18T06:04:38.534Z,23.92
2022-12-18T06:07:05.140Z,25.27
2022-12-18T06:09:32.003Z,28.35
2022-12-18T06:11:58.573Z,28.55
2022-12-18T06:14:25.082Z,23.30
2022-12-18T06:16:53.236Z,27.00
2022-12-18T06:19:19.821Z,24.17
2022-12-18T06:21:46.421Z,24.13
2022-12-18T06:24:13.031Z,21.48
2022-12-18T06:26:40.024Z,22.58
2022-12-18T06:29:06.773Z,27.77
2022-12-18T06:31:33.581Z,25.23
2022-12-18T06:34:02.681Z,26.60
2022-12-18T06:36:29.813Z,30.35
2022-12-18T06:38:58.465Z,27.55
2022-12-18T06:41:25.281Z,25.23
2022-12-18T06:43:55.579Z,28.80
2022-12-18T06:46:24.889Z,27.67
2022-12-18T06:48:51.575Z,25.75
2022-12-18T06:51:19.860Z,28.15
2022-12-18T06:53:46.511Z,29.15
2022-12-18T06:56:13.053Z,28.10
2022-12-18T06:58:40.183Z,23.23
2022-12-18T07:01:09.556Z,28.20
2022-12-18T07:03:37.072Z,25.98
2022-12-18T07:06:04.438Z,27.30
2022-12-18T07:08:32.260Z,22.73
2022-12-18T07:10:59.151Z,24.33
2022-12-18T07:13:25.922Z,27.38
2022-12-18T07:15:52.478Z,25.33
2022-12-18T07:18:19.023Z,24.45
2022-12-18T07:20:45.697Z,24.00
2022-12-18T07:23:12.786Z,22.65
2022-12-18T07:25:40.399Z,23.25
2022-12-18T07:28:07.003Z,26.52
2022-12-18T07:30:33.877Z,23.75
2022-12-18T07:33:00.559Z,29.40
2022-12-18T07:35:27.136Z,34.88
2022-12-18T07:37:53.673Z,23.63
2022-12-18T07:40:20.288Z,27.38
2022-12-18T07:42:46.835Z,26.20
2022-12-18T07:45:13.436Z,24.98
2022-12-18T07:47:42.111Z,22.08
2022-12-18T07:50:09.768Z,27.70
2022-12-18T07:52:36.898Z,27.80
2022-12-18T07:55:04.149Z,24.23
2022-12-18T08:00:17.772Z,26.90
2022-12-18T08:02:44.858Z,27.95
2022-12-18T08:05:14.129Z,25.55
2022-12-18T08:07:41.001Z,27.08
2022-12-18T08:10:08.154Z,33.55
2022-12-18T08:12:35.290Z,26.15
2022-12-18T08:15:02.858Z,29.58
2022-12-18T08:17:32.049Z,26.13
2022-12-18T08:19:59.692Z,31.05
2022-12-18T08:22:27.037Z,27.85
2022-12-18T08:24:54.427Z,29.83
2022-12-18T08:27:29.278Z,30.40
2022-12-18T08:29:58.982Z,32.45
2022-12-18T08:32:28.979Z,26.67
2022-12-18T08:34:58.106Z,26.88
2022-12-18T08:37:30.280Z,26.23
2022-12-18T08:39:58.631Z,26.98
2022-12-18T08:42:45.606Z,30.08
2022-12-18T08:45:12.362Z,25.80
2022-12-18T08:47:39.312Z,27.17
2022-12-18T08:50:07.236Z,31.48
2022-12-18T08:52:35.452Z,25.52
2022-12-18T08:55:04.195Z,26.35
2022-12-18T08:57:31.085Z,23.48
2022-12-18T08:59:57.731Z,26.13
2022-12-18T09:02:24.428Z,27.77
2022-12-18T09:04:56.945Z,25.38
2022-12-18T09:07:25.142Z,27.75
2022-12-18T09:09:52.141Z,28.35
2022-12-18T09:12:20.651Z,28.58
2022-12-18T09:14:48.556Z,28.98
2022-12-18T09:17:16.533Z,30.45
2022-12-18T09:19:43.781Z,29.67
2022-12-18T09:22:11.782Z,30.90
2022-12-18T09:24:40.084Z,25.45
2022-12-18T09:27:07.477Z,26.92
2022-12-18T09:29:35.199Z,31.08
2022-12-18T09:32:03.870Z,30.55
2022-12-18T09:34:31.090Z,27.52
2022-12-18T09:36:58.263Z,29.65
2022-12-18T09:39:25.359Z,30.23
2022-12-18T09:41:58.639Z,29.23
2022-12-18T09:44:45.124Z,34.05
2022-12-18T09:47:21.449Z,29.02
2022-12-18T09:49:53.951Z,27.85
2022-12-18T09:52:37.499Z,27.52
2022-12-18T09:55:12.981Z,34.67
2022-12-18T09:57:47.450Z,26.38
2022-12-18T10:00:24.219Z,22.90
2022-12-18T10:03:00.788Z,27.77
2022-12-18T10:05:37.381Z,22.08
2022-12-18T10:08:09.031Z,20.25
2022-12-18T10:10:53.138Z,23.40
2022-12-18T10:13:41.603Z,21.02
2022-12-18T10:16:23.464Z,21.00
2022-12-18T10:19:14.399Z,22.33
2022-12-18T10:21:57.106Z,24.35
2022-12-18T10:24:43.446Z,24.08
2022-12-18T10:27:23.206Z,19.83
2022-12-18T10:29:50.065Z,24.02
2022-12-18T10:32:26.731Z,26.00
2022-12-18T10:35:00.120Z,25.85
2022-12-18T10:37:29.797Z,22.10
2022-12-18T10:40:08.070Z,24.20
2022-12-18T10:42:34.842Z,22.90
2022-12-18T10:45:21.618Z,22.05
2022-12-18T10:47:50.427Z,24.25
2022-12-18T10:50:53.994Z,21.08
2022-12-18T10:53:22.603Z,19.80
2022-12-18T10:55:49.963Z,23.50
2022-12-18T10:58:30.465Z,21.02
2022-12-18T11:01:12.006Z,22.92
2022-12-18T11:03:43.350Z,19.50
2022-12-18T11:06:16.532Z,18.38
2022-12-18T11:08:45.420Z,23.75
2022-12-18T11:11:23.345Z,21.17
2022-12-18T11:14:22.015Z,22.65
2022-12-18T11:17:24.164Z,21.08
2022-12-18T11:19:41.958Z,21.02
2022-12-18T11:22:25.251Z,23.73
2022-12-18T11:25:56.876Z,24.40
2022-12-18T11:28:05.470Z,20.83
2022-12-18T11:30:37.588Z,25.85
2022-12-18T11:33:09.465Z,26.27
2022-12-18T11:35:39.380Z,20.48
2022-12-18T11:38:26.353Z,24.42
2022-12-18T11:41:00.029Z,22.25
2022-12-18T11:43:32.456Z,23.95
2022-12-18T11:46:17.667Z,26.15
2022-12-18T11:49:11.015Z,22.40
2022-12-18T11:52:27.728Z,22.17
2022-12-18T11:54:59.754Z,22.25
2022-12-18T11:57:57.327Z,21.27
2022-12-18T12:00:24.861Z,28.08
2022-12-18T12:03:09.722Z,28.63
2022-12-18T12:05:45.505Z,23.52
2022-12-18T12:08:24.667Z,24.58
2022-12-18T12:11:42.415Z,23.52
2022-12-18T12:14:11.811Z,24.63
2022-12-18T12:16:56.829Z,21.63
2022-12-18T12:19:29.760Z,25.02
2022-12-18T12:22:14.732Z,25.85
2022-12-18T12:24:55.947Z,25.17
2022-12-18T12:27:35.408Z,25.05
2022-12-18T12:30:01.966Z,27.00
2022-12-18T12:32:36.971Z,23.58
2022-12-18T12:35:18.983Z,25.30
2022-12-18T12:38:04.119Z,25.85
2022-12-18T12:40:56.646Z,19.35
2022-12-18T12:43:28.115Z,26.88
2022-12-18T12:46:02.551Z,22.20
2022-12-18T12:48:35.296Z,28.15
2022-12-18T12:51:09.276Z,25.85
2022-12-18T12:53:40.164Z,26.38
2022-12-18T12:56:11.081Z,28.02
2022-12-18T12:59:00.403Z,25.08
2022-12-18T13:04:42.702Z,23.35
2022-12-18T13:07:47.217Z,20.48
2022-12-18T13:10:23.814Z,22.40
2022-12-18T13:13:00.606Z,22.27
2022-12-18T13:15:49.295Z,23.42
2022-12-18T13:18:24.837Z,25.30
2022-12-18T13:21:19.964Z,21.98
2022-12-18T13:23:46.964Z,21.85
2022-12-18T13:26:26.315Z,24.48
2022-12-18T13:28:57.008Z,21.88
2022-12-18T13:31:42.174Z,22.20
2022-12-18T13:34:41.912Z,25.30
2022-12-18T13:37:33.681Z,22.35
2022-12-18T13:40:00.391Z,23.33
2022-12-18T13:42:56.648Z,23.48
2022-12-18T13:45:42.002Z,25.58
2022-12-18T13:48:24.368Z,22.10
2022-12-18T13:50:55.982Z,21.38
2022-12-18T13:53:51.577Z,22.73
2022-12-18T13:56:19.414Z,21.17
2022-12-18T13:59:03.841Z,18.43
2022-12-18T14:01:30.524Z,22.00
2022-12-18T14:04:13.823Z,17.98
2022-12-18T14:06:40.675Z,21.13
2022-12-18T14:09:11.361Z,21.08
2022-12-18T14:11:39.974Z,19.77
2022-12-18T14:14:08.399Z,24.65
2022-12-18T14:16:35.355Z,21.98
2022-12-18T14:19:08.708Z,19.75
2022-12-18T14:21:41.586Z,22.17
2022-12-18T14:24:22.522Z,17.55
2022-12-18T14:26:51.157Z,19.95
2022-12-18T14:29:31.823Z,16.70
2022-12-18T14:34:41.771Z,17.60
2022-12-18T14:37:12.592Z,16.55
2022-12-18T14:39:40.068Z,17.48
2022-12-18T14:42:06.965Z,17.67
2022-12-18T14:44:44.250Z,20.70
2022-12-18T14:47:18.565Z,18.48
2022-12-18T14:49:45.470Z,20.88
2022-12-18T14:52:38.603Z,19.25
2022-12-18T14:55:05.662Z,18.65
2022-12-18T14:57:38.768Z,20.27
2022-12-18T15:00:20.224Z,19.38
2022-12-18T15:02:51.903Z,16.48
2022-12-18T15:05:28.450Z,19.40
2022-12-18T15:07:57.623Z,20.83
2022-12-18T15:10:32.480Z,23.50
2022-12-18T15:13:04.713Z,22.70
2022-12-18T15:15:34.758Z,23.45
2022-12-18T15:18:04.916Z,23.58
2022-12-18T15:20:33.964Z,23.75
2022-12-18T15:23:00.593Z,23.27
2022-12-18T15:25:37.769Z,19.83
2022-12-18T15:28:16.520Z,20.50
2022-12-18T15:31:00.021Z,21.02
2022-12-18T15:33:32.913Z,24.85
2022-12-18T15:36:02.940Z,24.02
2022-12-18T15:38:29.873Z,19.40
2022-12-18T15:40:56.634Z,23.52
2022-12-18T15:43:37.434Z,23.67
2022-12-18T15:46:16.749Z,24.77
2022-12-18T15:48:46.507Z,22.00
2022-12-18T15:51:17.298Z,17.88
2022-12-18T15:53:45.533Z,21.35
2022-12-18T15:56:31.713Z,21.38
2022-12-18T15:58:58.399Z,22.40
2022-12-18T16:01:27.599Z,20.58
2022-12-18T16:03:54.998Z,16.90
2022-12-18T16:06:22.941Z,22.83
2022-12-18T16:08:49.675Z,20.45
2022-12-18T16:11:44.119Z,21.58
2022-12-18T16:14:31.730Z,21.20
2022-12-18T16:17:04.188Z,22.13
2022-12-18T16:19:31.129Z,26.38
2022-12-18T16:21:59.569Z,22.25
2022-12-18T16:24:29.191Z,21.27
2022-12-18T16:26:58.614Z,22.17
2022-12-18T16:29:28.479Z,22.48
2022-12-18T16:31:56.464Z,22.63
2022-12-18T16:34:28.794Z,21.92
2022-12-18T16:37:05.492Z,24.92
2022-12-18T16:39:36.763Z,23.88
2022-12-18T16:42:06.315Z,24.40
2022-12-18T16:44:34.444Z,21.40
2022-12-18T16:47:03.057Z,22.45
2022-12-18T16:49:30.604Z,22.27
2022-12-18T16:51:57.539Z,25.15
2022-12-18T16:54:30.304Z,22.55
2022-12-18T16:56:57.211Z,18.80
2022-12-18T16:59:24.731Z,21.70
2022-12-18T17:01:53.879Z,21.90
2022-12-18T17:04:20.952Z,21.85
2022-12-18T17:06:52.304Z,25.10
2022-12-18T17:09:25.505Z,20.38
2022-12-18T17:11:54.450Z,20.48
2022-12-18T17:14:25.037Z,23.23
2022-12-18T17:17:19.205Z,24.13
2022-12-18T17:19:42.439Z,22.00
2022-12-18T17:22:09.944Z,22.27
2022-12-18T17:24:37.754Z,24.60
2022-12-18T17:27:05.897Z,19.92
2022-12-18T17:29:32.719Z,22.45
2022-12-18T17:32:00.451Z,22.35
2022-12-18T17:34:29.780Z,20.00
2022-12-18T17:36:57.630Z,23.92
2022-12-18T17:39:24.390Z,23.25
2022-12-18T17:41:51.072Z,21.15
2022-12-18T17:44:17.983Z,23.27
2022-12-18T17:46:45.975Z,22.27
2022-12-18T17:49:13.950Z,20.75
2022-12-18T17:51:43.009Z,24.48
2022-12-18T17:54:10.896Z,25.40
2022-12-18T17:56:38.459Z,22.48
2022-12-18T17:59:05.371Z,17.10
2022-12-18T18:01:32.251Z,25.40
2022-12-18T18:04:00.342Z,22.08
2022-12-18T18:06:27.528Z,25.65
2022-12-18T18:08:54.627Z,20.83
2022-12-18T18:11:41.670Z,24.42
2022-12-18T18:14:16.536Z,18.27
2022-12-18T18:16:49.828Z,19.35
2022-12-18T18:19:19.655Z,22.90
2022-12-18T18:21:47.717Z,17.00
2022-12-18T18:24:16.656Z,20.15
2022-12-18T18:26:43.668Z,22.75
2022-12-18T18:29:15.470Z,20.38
2022-12-18T18:31:42.525Z,25.40
2022-12-18T18:34:18.409Z,20.30
2022-12-18T18:36:46.278Z,20.73
2022-12-18T18:39:14.209Z,19.25
2022-12-18T18:41:41.411Z,18.98
2022-12-18T18:44:13.281Z,19.25
2022-12-18T18:46:40.942Z,16.65
2022-12-18T18:49:07.554Z,18.67
2022-12-18T18:51:35.211Z,20.63
2022-12-18T18:54:02.280Z,20.17
2022-12-18T18:59:16.456Z,17.35
2022-12-18T19:01:43.370Z,19.08
2022-12-18T19:04:10.081Z,20.02
2022-12-18T19:06:38.337Z,19.40
2022-12-18T19:09:06.681Z,17.15
2022-12-18T19:11:52.138Z,17.17
2022-12-18T19:14:18.851Z,17.88
2022-12-18T19:16:49.992Z,18.00
2022-12-18T19:19:20.998Z,22.88
2022-12-18T19:21:48.027Z,17.90
2022-12-18T19:24:16.118Z,22.58
2022-12-18T19:26:42.849Z,21.10
2022-12-18T19:29:12.052Z,19.17
2022-12-18T19:31:40.499Z,17.75
2022-12-18T19:34:07.866Z,21.33
2022-12-18T19:36:37.998Z,17.67
2022-12-18T19:39:11.465Z,22.70
2022-12-18T19:41:38.914Z,19.70
2022-12-18T19:44:07.558Z,20.65
2022-12-18T19:46:35.927Z,14.75
2022-12-18T19:49:02.972Z,21.40
2022-12-18T19:51:31.624Z,16.67
2022-12-18T19:54:01.732Z,21.23
2022-12-18T19:56:33.787Z,21.30
2022-12-18T19:59:02.923Z,19.65
2022-12-18T20:01:30.850Z,18.90
2022-12-18T20:03:58.901Z,14.80
2022-12-18T20:06:27.861Z,19.13
2022-12-18T20:08:59.560Z,19.45
2022-12-18T20:11:29.832Z,18.17
2022-12-18T20:13:57.547Z,18.95
2022-12-18T20:16:27.194Z,17.73
2022-12-18T20:18:53.896Z,19.38
2022-12-18T20:21:21.162Z,17.15
2022-12-18T20:23:47.857Z,16.02
2022-12-18T20:26:14.674Z,17.95
2022-12-18T20:28:42.273Z,18.88
2022-12-18T20:31:13.668Z,18.30
2022-12-18T20:33:42.614Z,18.58
2022-12-18T20:36:13.802Z,18.67
2022-12-18T20:38:41.395Z,18.83
2022-12-18T20:41:11.745Z,16.70
2022-12-18T20:43:39.534Z,17.25
2022-12-18T20:46:09.466Z,17.17
2022-12-18T20:48:36.597Z,15.18
2022-12-18T20:51:14.116Z,12.88
2022-12-18T20:53:42.075Z,15.57
2022-12-18T20:56:12.509Z,17.38
2022-12-18T20:58:39.164Z,13.00
2022-12-18T21:01:17.052Z,20.42
2022-12-18T21:03:45.968Z,18.48
2022-12-18T21:06:14.106Z,16.25
2022-12-18T21:08:41.061Z,16.75
2022-12-18T21:11:38.468Z,13.93
2022-12-18T21:14:20.965Z,17.85
2022-12-18T21:16:48.028Z,16.27
2022-12-18T21:19:17.745Z,21.52
2022-12-18T21:21:45.058Z,19.13
2022-12-18T21:24:12.175Z,19.15
2022-12-18T21:26:45.099Z,18.58
2022-12-18T21:29:14.133Z,16.15
2022-12-18T21:31:41.845Z,19.65
2022-12-18T21:34:13.987Z,19.20
2022-12-18T21:36:40.755Z,14.35
2022-12-18T21:39:07.596Z,21.00
2022-12-18T21:41:52.894Z,19.17
2022-12-18T21:44:22.070Z,23.17
2022-12-18T21:46:54.999Z,19.63
2022-12-18T21:49:25.424Z,20.50
2022-12-18T21:51:54.703Z,21.15
2022-12-18T21:54:22.120Z,20.48
2022-12-18T21:56:54.552Z,19.25
2022-12-18T21:59:27.309Z,22.35
2022-12-18T22:01:56.558Z,19.33
2022-12-18T22:04:25.599Z,23.20
2022-12-18T22:06:52.547Z,22.27
2022-12-18T22:09:21.425Z,19.98
2022-12-18T22:11:49.164Z,24.35
2022-12-18T22:14:19.372Z,24.73
2022-12-18T22:16:46.859Z,24.23
2022-12-18T22:19:13.552Z,24.98
2022-12-18T22:21:45.516Z,20.77
2022-12-18T22:24:22.436Z,22.52
2022-12-18T22:26:50.677Z,23.60
2022-12-18T22:29:38.728Z,19.83
2022-12-18T22:32:06.810Z,20.95
2022-12-18T22:34:36.515Z,23.27
2022-12-18T22:37:03.990Z,22.40
2022-12-18T22:39:30.702Z,24.05
2022-12-18T22:41:58.284Z,23.10
2022-12-18T22:44:25.106Z,22.85
2022-12-18T22:47:06.487Z,24.42
2022-12-18T22:49:34.955Z,23.08
2022-12-18T22:52:06.731Z,23.73
2022-12-18T22:54:33.493Z,19.65
2022-12-18T22:57:00.066Z,27.00
2022-12-18T22:59:26.725Z,22.38
2022-12-18T23:01:58.829Z,25.98
2022-12-18T23:04:36.072Z,25.30
2022-12-18T23:07:07.746Z,23.60
2022-12-18T23:09:34.731Z,21.15
2022-12-18T23:12:01.545Z,23.67
2022-12-18T23:14:29.202Z,26.02
2022-12-18T23:16:56.299Z,26.02
2022-12-18T23:19:23.814Z,25.33
2022-12-18T23:21:51.407Z,20.88
2022-12-18T23:24:18.192Z,22.40
2022-12-18T23:26:44.903Z,23.20
2022-12-18T23:29:11.527Z,25.67
2022-12-18T23:31:39.533Z,26.05
2022-12-18T23:34:07.051Z,25.15
2022-12-18T23:36:46.034Z,22.65
2022-12-18T23:39:22.394Z,30.75
2022-12-18T23:41:58.826Z,27.92
2022-12-18T23:44:25.653Z,29.38
2022-12-18T23:46:52.755Z,27.38
2022-12-18T23:49:19.483Z,24.85
2022-12-18T23:51:46.069Z,25.00
2022-12-18T23:54:12.685Z,24.73
2022-12-18T23:56:39.263Z,24.00
2022-12-18T23:59:05.984Z,24.38
